sensor_id;sensor_type;location;lat;lon;timestamp;temperature;humidity
1455;DHT22;721;48.168;12.818;2023-03-01T00:02:15;2.30;1.50
1455;DHT22;721;48.168;12.818;2023-03-01T00:04:42;2.30;1.50
1455;DHT22;721;48.168;12.818;2023-03-01T00:07:09;2.30;1.00
1455;DHT22;721;48.168;12.818;2023-03-01T00:09:37;2.20;1.00
1455;DHT22;721;48.168;12.818;2023-03-01T00:12:06;2.10;1.40
1455;DHT22;721;48.168;12.818;2023-03-01T00:14:33;2.20;1.10
1455;DHT22;721;48.168;12.818;2023-03-01T00:16:59;2.10;1.10
1455;DHT22;721;48.168;12.818;2023-03-01T00:19:27;2.20;1.20
1455;DHT22;721;48.168;12.818;2023-03-01T00:21:54;2.20;1.00
1455;DHT22;721;48.168;12.818;2023-03-01T00:24:21;2.30;1.00
1455;DHT22;721;48.168;12.818;2023-03-01T00:26:52;2.30;1.00
1455;DHT22;721;48.168;12.818;2023-03-01T00:29:20;2.30;1.00
1455;DHT22;721;48.168;12.818;2023-03-01T00:31:47;2.10;1.00
1455;DHT22;721;48.168;12.818;2023-03-01T00:34:14;2.10;1.00
1455;DHT22;721;48.168;12.818;2023-03-01T00:36:41;2.20;1.00
1455;DHT22;721;48.168;12.818;2023-03-01T00:39:11;2.10;1.00
1455;DHT22;721;48.168;12.818;2023-03-01T00:41:38;2.10;1.00
1455;DHT22;721;48.168;12.818;2023-03-01T00:44:06;2.10;1.00
1455;DHT22;721;48.168;12.818;2023-03-01T00:46:33;2.00;1.00
1455;DHT22;721;48.168;12.818;2023-03-01T00:49:00;2.00;1.00
1455;DHT22;721;48.168;12.818;2023-03-01T00:51:28;1.90;1.80
1455;DHT22;721;48.168;12.818;2023-03-01T00:53:57;1.70;2.20
1455;DHT22;721;48.168;12.818;2023-03-01T00:56:24;1.70;2.40
1455;DHT22;721;48.168;12.818;2023-03-01T00:58:51;1.60;3.00
1455;DHT22;721;48.168;12.818;2023-03-01T01:01:21;1.70;2.90
1455;DHT22;721;48.168;12.818;2023-03-01T01:03:49;1.70;2.80
1455;DHT22;721;48.168;12.818;2023-03-01T01:06:18;1.60;3.20
1455;DHT22;721;48.168;12.818;2023-03-01T01:08:46;1.70;3.40
1455;DHT22;721;48.168;12.818;2023-03-01T01:11:13;1.60;3.60
1455;DHT22;721;48.168;12.818;2023-03-01T01:13:41;1.60;3.50
1455;DHT22;721;48.168;12.818;2023-03-01T01:16:08;1.60;3.60
1455;DHT22;721;48.168;12.818;2023-03-01T01:18:37;1.50;4.20
1455;DHT22;721;48.168;12.818;2023-03-01T01:21:05;1.50;4.50
1455;DHT22;721;48.168;12.818;2023-03-01T01:23:32;1.50;4.30
1455;DHT22;721;48.168;12.818;2023-03-01T01:26:04;1.50;4.60
1455;DHT22;721;48.168;12.818;2023-03-01T01:28:31;1.50;4.70
1455;DHT22;721;48.168;12.818;2023-03-01T01:30:58;1.40;5.10
1455;DHT22;721;48.168;12.818;2023-03-01T01:33:24;1.50;4.70
1455;DHT22;721;48.168;12.818;2023-03-01T01:35:53;1.40;4.90
1455;DHT22;721;48.168;12.818;2023-03-01T01:38:20;1.40;4.90
1455;DHT22;721;48.168;12.818;2023-03-01T01:40:48;1.40;5.10
1455;DHT22;721;48.168;12.818;2023-03-01T01:43:19;1.30;5.40
1455;DHT22;721;48.168;12.818;2023-03-01T01:45:46;1.30;5.40
1455;DHT22;721;48.168;12.818;2023-03-01T01:48:18;1.20;5.40
1455;DHT22;721;48.168;12.818;2023-03-01T01:50:53;1.20;5.90
1455;DHT22;721;48.168;12.818;2023-03-01T01:53:21;1.10;6.40
1455;DHT22;721;48.168;12.818;2023-03-01T01:55:53;1.10;6.40
1455;DHT22;721;48.168;12.818;2023-03-01T01:58:24;1.10;6.50
1455;DHT22;721;48.168;12.818;2023-03-01T02:00:53;1.10;6.30
1455;DHT22;721;48.168;12.818;2023-03-01T02:03:24;1.10;6.20
1455;DHT22;721;48.168;12.818;2023-03-01T02:05:58;0.90;7.70
1455;DHT22;721;48.168;12.818;2023-03-01T02:08:29;1.00;7.40
1455;DHT22;721;48.168;12.818;2023-03-01T02:10:58;1.00;7.30
1455;DHT22;721;48.168;12.818;2023-03-01T02:13:26;1.00;7.50
1455;DHT22;721;48.168;12.818;2023-03-01T02:15:53;0.80;8.80
1455;DHT22;721;48.168;12.818;2023-03-01T02:18:22;0.90;8.00
1455;DHT22;721;48.168;12.818;2023-03-01T02:20:58;0.90;7.90
1455;DHT22;721;48.168;12.818;2023-03-01T02:23:27;0.80;8.50
1455;DHT22;721;48.168;12.818;2023-03-01T02:25:59;0.80;8.10
1455;DHT22;721;48.168;12.818;2023-03-01T02:28:31;0.90;8.10
1455;DHT22;721;48.168;12.818;2023-03-01T02:30:58;0.90;8.10
1455;DHT22;721;48.168;12.818;2023-03-01T02:33:43;0.80;8.30
1455;DHT22;721;48.168;12.818;2023-03-01T02:36:14;0.80;9.20
1455;DHT22;721;48.168;12.818;2023-03-01T02:38:42;0.80;8.80
1455;DHT22;721;48.168;12.818;2023-03-01T02:41:11;0.80;8.70
1455;DHT22;721;48.168;12.818;2023-03-01T02:43:39;0.80;8.90
1455;DHT22;721;48.168;12.818;2023-03-01T02:46:08;0.70;9.80
1455;DHT22;721;48.168;12.818;2023-03-01T02:48:43;0.50;10.70
1455;DHT22;721;48.168;12.818;2023-03-01T02:51:25;0.50;10.70
1455;DHT22;721;48.168;12.818;2023-03-01T02:54:05;0.50;11.10
1455;DHT22;721;48.168;12.818;2023-03-01T02:56:33;0.60;10.40
1455;DHT22;721;48.168;12.818;2023-03-01T02:59:02;0.60;10.00
1455;DHT22;721;48.168;12.818;2023-03-01T03:01:29;0.70;9.80
1455;DHT22;721;48.168;12.818;2023-03-01T03:04:02;0.70;9.80
1455;DHT22;721;48.168;12.818;2023-03-01T03:06:29;0.50;10.10
1455;DHT22;721;48.168;12.818;2023-03-01T03:08:56;0.50;10.90
1455;DHT22;721;48.168;12.818;2023-03-01T03:11:23;0.50;10.50
1455;DHT22;721;48.168;12.818;2023-03-01T03:13:50;0.50;10.40
1455;DHT22;721;48.168;12.818;2023-03-01T03:16:18;0.50;11.00
1455;DHT22;721;48.168;12.818;2023-03-01T03:18:46;0.50;11.00
1455;DHT22;721;48.168;12.818;2023-03-01T03:21:13;0.50;10.80
1455;DHT22;721;48.168;12.818;2023-03-01T03:23:40;0.50;10.50
1455;DHT22;721;48.168;12.818;2023-03-01T03:26:07;0.50;10.60
1455;DHT22;721;48.168;12.818;2023-03-01T03:28:34;0.50;10.60
1455;DHT22;721;48.168;12.818;2023-03-01T03:31:01;0.50;10.00
1455;DHT22;721;48.168;12.818;2023-03-01T03:33:31;0.40;11.40
1455;DHT22;721;48.168;12.818;2023-03-01T03:35:58;0.40;11.80
1455;DHT22;721;48.168;12.818;2023-03-01T03:38:25;0.30;12.40
1455;DHT22;721;48.168;12.818;2023-03-01T03:40:59;0.20;12.80
1455;DHT22;721;48.168;12.818;2023-03-01T03:43:28;0.30;12.90
1455;DHT22;721;48.168;12.818;2023-03-01T03:45:55;0.30;12.90
1455;DHT22;721;48.168;12.818;2023-03-01T03:48:24;0.30;12.90
1455;DHT22;721;48.168;12.818;2023-03-01T03:50:53;0.20;13.40
1455;DHT22;721;48.168;12.818;2023-03-01T03:53:21;0.10;14.10
1455;DHT22;721;48.168;12.818;2023-03-01T03:55:48;0.10;14.60
1455;DHT22;721;48.168;12.818;2023-03-01T03:58:17;0.10;14.80
1455;DHT22;721;48.168;12.818;2023-03-01T04:00:46;0.10;14.40
1455;DHT22;721;48.168;12.818;2023-03-01T04:03:16;0.10;13.90
1455;DHT22;721;48.168;12.818;2023-03-01T04:05:44;0.10;14.20
1455;DHT22;721;48.168;12.818;2023-03-01T04:08:13;0.10;13.90
1455;DHT22;721;48.168;12.818;2023-03-01T04:10:45;0.10;13.90
1455;DHT22;721;48.168;12.818;2023-03-01T04:13:14;0.10;13.90
1455;DHT22;721;48.168;12.818;2023-03-01T04:15:41;0.20;13.10
1455;DHT22;721;48.168;12.818;2023-03-01T04:18:10;0.10;13.10
1455;DHT22;721;48.168;12.818;2023-03-01T04:20:38;0.00;13.90
1455;DHT22;721;48.168;12.818;2023-03-01T04:23:07;0.10;12.90
1455;DHT22;721;48.168;12.818;2023-03-01T04:25:42;0.20;12.90
1455;DHT22;721;48.168;12.818;2023-03-01T04:28:09;0.10;12.70
1455;DHT22;721;48.168;12.818;2023-03-01T04:30:37;0.20;12.50
1455;DHT22;721;48.168;12.818;2023-03-01T04:33:05;0.20;12.00
1455;DHT22;721;48.168;12.818;2023-03-01T04:35:32;0.30;11.80
1455;DHT22;721;48.168;12.818;2023-03-01T04:38:00;0.20;11.50
1455;DHT22;721;48.168;12.818;2023-03-01T04:40:26;0.20;11.60
1455;DHT22;721;48.168;12.818;2023-03-01T04:42:55;0.20;11.60
1455;DHT22;721;48.168;12.818;2023-03-01T04:45:21;0.20;11.20
1455;DHT22;721;48.168;12.818;2023-03-01T04:47:48;0.10;11.50
1455;DHT22;721;48.168;12.818;2023-03-01T04:50:18;0.00;12.70
1455;DHT22;721;48.168;12.818;2023-03-01T04:52:48;0.00;12.70
1455;DHT22;721;48.168;12.818;2023-03-01T04:55:15;0.00;12.70
1455;DHT22;721;48.168;12.818;2023-03-01T04:57:42;-0.10;12.60
1455;DHT22;721;48.168;12.818;2023-03-01T05:00:12;-0.10;12.60
1455;DHT22;721;48.168;12.818;2023-03-01T05:02:50;-0.10;12.60
1455;DHT22;721;48.168;12.818;2023-03-01T05:05:21;0.00;12.70
1455;DHT22;721;48.168;12.818;2023-03-01T05:07:54;0.00;12.50
1455;DHT22;721;48.168;12.818;2023-03-01T05:10:22;-0.10;12.60
1455;DHT22;721;48.168;12.818;2023-03-01T05:12:49;-0.20;12.60
1455;DHT22;721;48.168;12.818;2023-03-01T05:15:19;-0.30;13.80
1455;DHT22;721;48.168;12.818;2023-03-01T05:17:47;-0.30;13.50
1455;DHT22;721;48.168;12.818;2023-03-01T05:20:14;-0.40;14.30
1455;DHT22;721;48.168;12.818;2023-03-01T05:22:41;-0.40;13.80
1455;DHT22;721;48.168;12.818;2023-03-01T05:25:08;-0.30;13.20
1455;DHT22;721;48.168;12.818;2023-03-01T05:27:35;-0.20;12.60
1455;DHT22;721;48.168;12.818;2023-03-01T05:30:03;-0.30;12.50
1455;DHT22;721;48.168;12.818;2023-03-01T05:32:41;-0.30;13.20
1455;DHT22;721;48.168;12.818;2023-03-01T05:35:09;-0.40;13.60
1455;DHT22;721;48.168;12.818;2023-03-01T05:37:39;-0.30;12.90
1455;DHT22;721;48.168;12.818;2023-03-01T05:40:06;-0.40;13.40
1455;DHT22;721;48.168;12.818;2023-03-01T05:42:43;-0.40;13.00
1455;DHT22;721;48.168;12.818;2023-03-01T05:45:10;-0.40;13.20
1455;DHT22;721;48.168;12.818;2023-03-01T05:47:39;-0.30;12.50
1455;DHT22;721;48.168;12.818;2023-03-01T05:50:11;-0.40;13.20
1455;DHT22;721;48.168;12.818;2023-03-01T05:52:38;-0.30;12.90
1455;DHT22;721;48.168;12.818;2023-03-01T05:55:05;-0.30;13.20
1455;DHT22;721;48.168;12.818;2023-03-01T05:57:33;-0.20;12.60
1455;DHT22;721;48.168;12.818;2023-03-01T05:59:59;-0.20;11.90
1455;DHT22;721;48.168;12.818;2023-03-01T06:02:26;-0.20;11.60
1455;DHT22;721;48.168;12.818;2023-03-01T06:04:56;-0.10;10.80
1455;DHT22;721;48.168;12.818;2023-03-01T06:07:23;-0.10;11.70
1455;DHT22;721;48.168;12.818;2023-03-01T06:09:49;-0.30;11.70
1455;DHT22;721;48.168;12.818;2023-03-01T06:12:16;-0.40;12.40
1455;DHT22;721;48.168;12.818;2023-03-01T06:14:44;-0.40;13.10
1455;DHT22;721;48.168;12.818;2023-03-01T06:17:11;-0.30;12.60
1455;DHT22;721;48.168;12.818;2023-03-01T06:19:38;-0.40;12.40
1455;DHT22;721;48.168;12.818;2023-03-01T06:22:06;-0.40;13.30
1455;DHT22;721;48.168;12.818;2023-03-01T06:24:33;-0.30;12.80
1455;DHT22;721;48.168;12.818;2023-03-01T06:27:00;-0.30;12.50
1455;DHT22;721;48.168;12.818;2023-03-01T06:29:27;-0.30;12.80
1455;DHT22;721;48.168;12.818;2023-03-01T06:31:53;-0.20;12.60
1455;DHT22;721;48.168;12.818;2023-03-01T06:34:20;-0.20;12.60
1455;DHT22;721;48.168;12.818;2023-03-01T06:36:47;-0.30;13.00
1455;DHT22;721;48.168;12.818;2023-03-01T06:39:15;-0.30;12.90
1455;DHT22;721;48.168;12.818;2023-03-01T06:41:43;-0.30;13.10
1455;DHT22;721;48.168;12.818;2023-03-01T06:44:09;-0.30;13.70
1455;DHT22;721;48.168;12.818;2023-03-01T06:46:36;-0.30;13.20
1455;DHT22;721;48.168;12.818;2023-03-01T06:49:03;-0.20;12.90
1455;DHT22;721;48.168;12.818;2023-03-01T06:51:35;-0.10;12.60
1455;DHT22;721;48.168;12.818;2023-03-01T06:54:02;-0.10;11.80
1455;DHT22;721;48.168;12.818;2023-03-01T06:56:30;-0.10;12.30
1455;DHT22;721;48.168;12.818;2023-03-01T06:58:57;-0.20;12.60
1455;DHT22;721;48.168;12.818;2023-03-01T07:01:24;-0.20;12.60
1455;DHT22;721;48.168;12.818;2023-03-01T07:03:51;0.00;11.80
1455;DHT22;721;48.168;12.818;2023-03-01T07:06:18;0.00;11.30
1455;DHT22;721;48.168;12.818;2023-03-01T07:08:45;0.00;11.60
1455;DHT22;721;48.168;12.818;2023-03-01T07:11:11;0.00;11.80
1455;DHT22;721;48.168;12.818;2023-03-01T07:13:40;0.00;11.50
1455;DHT22;721;48.168;12.818;2023-03-01T07:16:07;0.20;10.80
1455;DHT22;721;48.168;12.818;2023-03-01T07:18:34;0.20;10.60
1455;DHT22;721;48.168;12.818;2023-03-01T07:21:04;0.30;10.10
1455;DHT22;721;48.168;12.818;2023-03-01T07:23:31;0.30;9.30
1455;DHT22;721;48.168;12.818;2023-03-01T07:25:58;0.30;9.50
1455;DHT22;721;48.168;12.818;2023-03-01T07:28:26;0.30;9.40
1455;DHT22;721;48.168;12.818;2023-03-01T07:30:54;0.40;8.90
1455;DHT22;721;48.168;12.818;2023-03-01T07:33:21;0.50;9.00
1455;DHT22;721;48.168;12.818;2023-03-01T07:35:48;0.60;8.90
1455;DHT22;721;48.168;12.818;2023-03-01T07:38:14;0.60;7.50
1455;DHT22;721;48.168;12.818;2023-03-01T07:40:41;0.70;7.30
1455;DHT22;721;48.168;12.818;2023-03-01T07:43:08;0.80;7.00
1455;DHT22;721;48.168;12.818;2023-03-01T07:45:35;0.80;6.60
1455;DHT22;721;48.168;12.818;2023-03-01T07:48:03;0.80;6.60
1455;DHT22;721;48.168;12.818;2023-03-01T07:50:30;0.90;6.30
1455;DHT22;721;48.168;12.818;2023-03-01T07:52:56;0.90;6.20
1455;DHT22;721;48.168;12.818;2023-03-01T07:55:23;0.90;5.30
1455;DHT22;721;48.168;12.818;2023-03-01T07:57:50;0.90;5.40
1455;DHT22;721;48.168;12.818;2023-03-01T08:00:17;1.00;5.30
1455;DHT22;721;48.168;12.818;2023-03-01T08:02:44;1.10;4.90
1455;DHT22;721;48.168;12.818;2023-03-01T08:05:12;1.10;4.80
1455;DHT22;721;48.168;12.818;2023-03-01T08:07:39;1.10;5.30
1455;DHT22;721;48.168;12.818;2023-03-01T08:10:06;1.20;4.90
1455;DHT22;721;48.168;12.818;2023-03-01T08:12:33;1.30;4.40
1455;DHT22;721;48.168;12.818;2023-03-01T08:15:00;1.40;3.80
1455;DHT22;721;48.168;12.818;2023-03-01T08:17:27;1.40;3.50
1455;DHT22;721;48.168;12.818;2023-03-01T08:19:53;1.40;3.20
1455;DHT22;721;48.168;12.818;2023-03-01T08:22:22;1.40;2.90
1455;DHT22;721;48.168;12.818;2023-03-01T08:24:48;1.50;3.90
1455;DHT22;721;48.168;12.818;2023-03-01T08:27:16;1.60;3.40
1455;DHT22;721;48.168;12.818;2023-03-01T08:29:43;1.60;2.20
1455;DHT22;721;48.168;12.818;2023-03-01T08:32:09;1.60;2.60
1455;DHT22;721;48.168;12.818;2023-03-01T08:34:36;1.70;2.80
1455;DHT22;721;48.168;12.818;2023-03-01T08:37:03;1.80;2.80
1455;DHT22;721;48.168;12.818;2023-03-01T08:39:31;1.70;2.20
1455;DHT22;721;48.168;12.818;2023-03-01T08:41:58;1.70;2.80
1455;DHT22;721;48.168;12.818;2023-03-01T08:44:25;1.60;2.80
1455;DHT22;721;48.168;12.818;2023-03-01T08:46:51;1.80;2.10
1455;DHT22;721;48.168;12.818;2023-03-01T08:49:20;1.80;3.10
1455;DHT22;721;48.168;12.818;2023-03-01T08:51:47;1.90;2.50
1455;DHT22;721;48.168;12.818;2023-03-01T08:54:16;2.10;2.30
1455;DHT22;721;48.168;12.818;2023-03-01T08:56:45;2.30;1.20
1455;DHT22;721;48.168;12.818;2023-03-01T08:59:13;2.40;1.00
1455;DHT22;721;48.168;12.818;2023-03-01T09:01:40;2.30;1.70
1455;DHT22;721;48.168;12.818;2023-03-01T09:04:08;2.40;1.00
1455;DHT22;721;48.168;12.818;2023-03-01T09:06:35;2.50;1.00
1455;DHT22;721;48.168;12.818;2023-03-01T09:09:03;2.70;1.00
1455;DHT22;721;48.168;12.818;2023-03-01T09:11:30;2.80;1.00
1455;DHT22;721;48.168;12.818;2023-03-01T09:13:58;2.80;1.00
1455;DHT22;721;48.168;12.818;2023-03-01T09:16:25;2.90;1.00
1455;DHT22;721;48.168;12.818;2023-03-01T09:18:53;3.00;1.00
1455;DHT22;721;48.168;12.818;2023-03-01T09:21:22;3.10;1.00
1455;DHT22;721;48.168;12.818;2023-03-01T09:23:49;3.20;1.00
1455;DHT22;721;48.168;12.818;2023-03-01T09:26:18;3.30;1.00
1455;DHT22;721;48.168;12.818;2023-03-01T09:28:47;3.50;1.00
1455;DHT22;721;48.168;12.818;2023-03-01T09:31:17;3.50;1.00
1455;DHT22;721;48.168;12.818;2023-03-01T09:33:46;3.50;1.00
1455;DHT22;721;48.168;12.818;2023-03-01T09:36:14;3.60;1.00
1455;DHT22;721;48.168;12.818;2023-03-01T09:38:40;3.70;1.00
1455;DHT22;721;48.168;12.818;2023-03-01T09:41:10;3.70;1.00
1455;DHT22;721;48.168;12.818;2023-03-01T09:43:42;3.60;1.00
1455;DHT22;721;48.168;12.818;2023-03-01T09:46:12;3.80;1.00
1455;DHT22;721;48.168;12.818;2023-03-01T09:48:46;4.00;1.00
1455;DHT22;721;48.168;12.818;2023-03-01T09:51:18;4.00;1.00
1455;DHT22;721;48.168;12.818;2023-03-01T09:53:46;4.00;1.00
1455;DHT22;721;48.168;12.818;2023-03-01T09:56:16;4.10;1.00
1455;DHT22;721;48.168;12.818;2023-03-01T09:58:52;4.10;1.00
1455;DHT22;721;48.168;12.818;2023-03-01T10:01:30;4.20;1.00
1455;DHT22;721;48.168;12.818;2023-03-01T10:04:28;4.30;1.00
1455;DHT22;721;48.168;12.818;2023-03-01T10:07:07;4.30;1.00
1455;DHT22;721;48.168;12.818;2023-03-01T10:09:40;4.30;1.00
1455;DHT22;721;48.168;12.818;2023-03-01T10:12:10;4.40;1.00
1455;DHT22;721;48.168;12.818;2023-03-01T10:14:42;4.40;1.00
1455;DHT22;721;48.168;12.818;2023-03-01T10:17:19;4.40;1.00
1455;DHT22;721;48.168;12.818;2023-03-01T10:19:52;4.50;1.00
1455;DHT22;721;48.168;12.818;2023-03-01T10:22:20;4.90;1.00
1455;DHT22;721;48.168;12.818;2023-03-01T10:24:48;5.00;1.00
1455;DHT22;721;48.168;12.818;2023-03-01T10:27:19;5.10;1.00
1455;DHT22;721;48.168;12.818;2023-03-01T10:29:56;5.10;1.00
1455;DHT22;721;48.168;12.818;2023-03-01T10:32:26;5.10;1.00
1455;DHT22;721;48.168;12.818;2023-03-01T10:34:54;5.20;1.00
1455;DHT22;721;48.168;12.818;2023-03-01T10:37:22;5.20;1.00
1455;DHT22;721;48.168;12.818;2023-03-01T10:39:58;5.30;1.00
1455;DHT22;721;48.168;12.818;2023-03-01T10:42:31;5.40;1.00
1455;DHT22;721;48.168;12.818;2023-03-01T10:44:58;5.50;1.00
1455;DHT22;721;48.168;12.818;2023-03-01T10:47:41;5.50;1.00
1455;DHT22;721;48.168;12.818;2023-03-01T10:50:19;5.70;1.00
1455;DHT22;721;48.168;12.818;2023-03-01T10:52:57;5.80;1.00
1455;DHT22;721;48.168;12.818;2023-03-01T10:55:35;5.90;1.00
1455;DHT22;721;48.168;12.818;2023-03-01T10:58:17;6.00;1.00
1455;DHT22;721;48.168;12.818;2023-03-01T11:00:49;6.20;1.00
1455;DHT22;721;48.168;12.818;2023-03-01T11:03:23;6.30;1.00
1455;DHT22;721;48.168;12.818;2023-03-01T11:05:54;6.40;1.00
1455;DHT22;721;48.168;12.818;2023-03-01T11:08:39;6.40;1.00
1455;DHT22;721;48.168;12.818;2023-03-01T11:11:26;6.40;1.00
1455;DHT22;721;48.168;12.818;2023-03-01T11:13:58;6.50;1.00
1455;DHT22;721;48.168;12.818;2023-03-01T11:16:34;6.70;1.00
1455;DHT22;721;48.168;12.818;2023-03-01T11:19:17;6.90;1.00
1455;DHT22;721;48.168;12.818;2023-03-01T11:21:54;7.10;1.00
1455;DHT22;721;48.168;12.818;2023-03-01T11:24:26;7.10;1.00
1455;DHT22;721;48.168;12.818;2023-03-01T11:26:55;7.10;1.00
1455;DHT22;721;48.168;12.818;2023-03-01T11:29:27;7.10;1.00
1455;DHT22;721;48.168;12.818;2023-03-01T11:32:01;7.30;1.00
1455;DHT22;721;48.168;12.818;2023-03-01T11:34:40;7.60;1.00
1455;DHT22;721;48.168;12.818;2023-03-01T11:37:20;7.50;1.00
1455;DHT22;721;48.168;12.818;2023-03-01T11:39:54;7.60;1.00
1455;DHT22;721;48.168;12.818;2023-03-01T11:42:29;7.70;1.00
1455;DHT22;721;48.168;12.818;2023-03-01T11:45:00;7.80;1.00
1455;DHT22;721;48.168;12.818;2023-03-01T11:47:38;7.90;1.00
1455;DHT22;721;48.168;12.818;2023-03-01T11:50:16;8.20;1.00
1455;DHT22;721;48.168;12.818;2023-03-01T11:52:56;8.60;1.00
1455;DHT22;721;48.168;12.818;2023-03-01T11:55:36;8.60;1.00
1455;DHT22;721;48.168;12.818;2023-03-01T11:58:26;8.60;1.00
1455;DHT22;721;48.168;12.818;2023-03-01T12:01:07;8.70;1.00
1455;DHT22;721;48.168;12.818;2023-03-01T12:03:51;8.70;1.00
1455;DHT22;721;48.168;12.818;2023-03-01T12:06:30;9.00;1.00
1455;DHT22;721;48.168;12.818;2023-03-01T12:09:13;9.30;1.00
1455;DHT22;721;48.168;12.818;2023-03-01T12:11:59;9.60;1.00
1455;DHT22;721;48.168;12.818;2023-03-01T12:14:51;9.50;1.00
1455;DHT22;721;48.168;12.818;2023-03-01T12:20:04;9.70;1.00
1455;DHT22;721;48.168;12.818;2023-03-01T12:22:42;9.70;1.00
1455;DHT22;721;48.168;12.818;2023-03-01T12:25:25;9.80;1.00
1455;DHT22;721;48.168;12.818;2023-03-01T12:28:18;10.30;1.00
1455;DHT22;721;48.168;12.818;2023-03-01T12:31:00;10.70;1.00
1455;DHT22;721;48.168;12.818;2023-03-01T12:33:39;10.50;1.00
1455;DHT22;721;48.168;12.818;2023-03-01T12:36:23;10.60;1.00
1455;DHT22;721;48.168;12.818;2023-03-01T12:39:02;10.90;1.00
1455;DHT22;721;48.168;12.818;2023-03-01T12:41:47;11.00;1.00
1455;DHT22;721;48.168;12.818;2023-03-01T12:44:29;11.20;1.00
1455;DHT22;721;48.168;12.818;2023-03-01T12:47:11;11.70;1.00
1455;DHT22;721;48.168;12.818;2023-03-01T12:49:43;11.90;1.00
1455;DHT22;721;48.168;12.818;2023-03-01T12:52:15;11.70;1.00
1455;DHT22;721;48.168;12.818;2023-03-01T12:54:44;12.10;1.00
1455;DHT22;721;48.168;12.818;2023-03-01T12:57:17;12.30;1.00
1455;DHT22;721;48.168;12.818;2023-03-01T12:59:51;12.30;1.00
1455;DHT22;721;48.168;12.818;2023-03-01T13:02:31;12.20;1.00
1455;DHT22;721;48.168;12.818;2023-03-01T13:05:17;12.40;1.00
1455;DHT22;721;48.168;12.818;2023-03-01T13:07:54;12.60;1.00
1455;DHT22;721;48.168;12.818;2023-03-01T13:10:28;12.70;1.00
1455;DHT22;721;48.168;12.818;2023-03-01T13:13:12;12.60;1.00
1455;DHT22;721;48.168;12.818;2023-03-01T13:15:39;12.40;1.00
1455;DHT22;721;48.168;12.818;2023-03-01T13:18:28;12.60;1.00
1455;DHT22;721;48.168;12.818;2023-03-01T13:20:56;12.80;1.00
1455;DHT22;721;48.168;12.818;2023-03-01T13:23:26;12.80;1.00
1455;DHT22;721;48.168;12.818;2023-03-01T13:26:05;12.60;1.00
1455;DHT22;721;48.168;12.818;2023-03-01T13:28:51;12.70;1.00
1455;DHT22;721;48.168;12.818;2023-03-01T13:34:42;13.20;1.00
1455;DHT22;721;48.168;12.818;2023-03-01T13:37:10;13.70;1.00
1455;DHT22;721;48.168;12.818;2023-03-01T13:39:39;13.90;1.00
1455;DHT22;721;48.168;12.818;2023-03-01T13:45:23;14.00;1.00
1455;DHT22;721;48.168;12.818;2023-03-01T13:47:55;14.10;1.00
1455;DHT22;721;48.168;12.818;2023-03-01T13:50:25;14.30;1.00
1455;DHT22;721;48.168;12.818;2023-03-01T13:52:56;14.40;1.00
1455;DHT22;721;48.168;12.818;2023-03-01T13:55:30;14.20;1.00
1455;DHT22;721;48.168;12.818;2023-03-01T13:58:00;13.90;1.00
1455;DHT22;721;48.168;12.818;2023-03-01T14:00:33;13.40;1.00
1455;DHT22;721;48.168;12.818;2023-03-01T14:03:08;13.10;1.00
1455;DHT22;721;48.168;12.818;2023-03-01T14:05:35;13.00;1.00
1455;DHT22;721;48.168;12.818;2023-03-01T14:08:03;13.50;1.00
1455;DHT22;721;48.168;12.818;2023-03-01T14:10:36;14.10;1.00
1455;DHT22;721;48.168;12.818;2023-03-01T14:13:18;14.00;1.00
1455;DHT22;721;48.168;12.818;2023-03-01T14:15:54;13.60;1.00
1455;DHT22;721;48.168;12.818;2023-03-01T14:18:35;13.30;1.00
1455;DHT22;721;48.168;12.818;2023-03-01T14:21:07;13.60;1.00
1455;DHT22;721;48.168;12.818;2023-03-01T14:23:34;13.40;1.00
1455;DHT22;721;48.168;12.818;2023-03-01T14:26:02;13.50;1.00
1455;DHT22;721;48.168;12.818;2023-03-01T14:28:31;13.80;1.00
1455;DHT22;721;48.168;12.818;2023-03-01T14:31:01;14.20;1.00
1455;DHT22;721;48.168;12.818;2023-03-01T14:33:29;14.50;1.00
1455;DHT22;721;48.168;12.818;2023-03-01T14:36:00;14.30;1.00
1455;DHT22;721;48.168;12.818;2023-03-01T14:38:32;13.70;1.00
1455;DHT22;721;48.168;12.818;2023-03-01T14:41:04;13.90;1.00
1455;DHT22;721;48.168;12.818;2023-03-01T14:43:31;14.00;1.00
1455;DHT22;721;48.168;12.818;2023-03-01T14:46:00;13.70;1.00
1455;DHT22;721;48.168;12.818;2023-03-01T14:48:28;13.50;1.00
1455;DHT22;721;48.168;12.818;2023-03-01T14:50:56;12.50;1.00
1455;DHT22;721;48.168;12.818;2023-03-01T14:53:26;12.60;1.00
1455;DHT22;721;48.168;12.818;2023-03-01T14:55:55;12.50;1.00
1455;DHT22;721;48.168;12.818;2023-03-01T14:58:24;12.50;1.00
1455;DHT22;721;48.168;12.818;2023-03-01T15:00:53;12.50;1.00
1455;DHT22;721;48.168;12.818;2023-03-01T15:03:27;12.90;1.00
1455;DHT22;721;48.168;12.818;2023-03-01T15:05:57;13.30;1.00
1455;DHT22;721;48.168;12.818;2023-03-01T15:08:25;13.10;1.00
1455;DHT22;721;48.168;12.818;2023-03-01T15:11:01;13.10;1.00
1455;DHT22;721;48.168;12.818;2023-03-01T15:13:31;13.20;1.00
1455;DHT22;721;48.168;12.818;2023-03-01T15:16:05;13.10;1.00
1455;DHT22;721;48.168;12.818;2023-03-01T15:18:35;13.10;1.00
1455;DHT22;721;48.168;12.818;2023-03-01T15:21:08;12.80;1.00
1455;DHT22;721;48.168;12.818;2023-03-01T15:23:37;12.70;1.00
1455;DHT22;721;48.168;12.818;2023-03-01T15:26:05;12.30;1.00
1455;DHT22;721;48.168;12.818;2023-03-01T15:28:34;12.30;1.00
1455;DHT22;721;48.168;12.818;2023-03-01T15:31:20;12.10;1.00
1455;DHT22;721;48.168;12.818;2023-03-01T15:33:49;12.10;1.00
1455;DHT22;721;48.168;12.818;2023-03-01T15:36:36;12.10;1.00
1455;DHT22;721;48.168;12.818;2023-03-01T15:39:05;11.80;1.00
1455;DHT22;721;48.168;12.818;2023-03-01T15:41:50;11.60;1.00
1455;DHT22;721;48.168;12.818;2023-03-01T15:44:25;11.20;1.00
1455;DHT22;721;48.168;12.818;2023-03-01T15:46:52;10.70;1.00
1455;DHT22;721;48.168;12.818;2023-03-01T15:49:32;10.40;1.00
1455;DHT22;721;48.168;12.818;2023-03-01T15:51:59;10.30;1.00
1455;DHT22;721;48.168;12.818;2023-03-01T15:54:27;10.20;1.00
1455;DHT22;721;48.168;12.818;2023-03-01T15:56:54;10.10;1.00
1455;DHT22;721;48.168;12.818;2023-03-01T15:59:21;10.10;1.00
1455;DHT22;721;48.168;12.818;2023-03-01T16:01:49;9.90;1.00
1455;DHT22;721;48.168;12.818;2023-03-01T16:04:17;9.70;1.00
1455;DHT22;721;48.168;12.818;2023-03-01T16:06:50;9.70;1.00
1455;DHT22;721;48.168;12.818;2023-03-01T16:09:21;9.40;1.00
1455;DHT22;721;48.168;12.818;2023-03-01T16:11:49;9.50;1.00
1455;DHT22;721;48.168;12.818;2023-03-01T16:14:16;9.50;1.00
1455;DHT22;721;48.168;12.818;2023-03-01T16:16:43;9.50;1.00
1455;DHT22;721;48.168;12.818;2023-03-01T16:19:10;9.30;1.00
1455;DHT22;721;48.168;12.818;2023-03-01T16:22:13;9.20;1.00
1455;DHT22;721;48.168;12.818;2023-03-01T16:24:41;9.30;1.00
1455;DHT22;721;48.168;12.818;2023-03-01T16:27:07;9.20;1.00
1455;DHT22;721;48.168;12.818;2023-03-01T16:29:35;9.20;1.00
1455;DHT22;721;48.168;12.818;2023-03-01T16:32:02;9.00;1.00
1455;DHT22;721;48.168;12.818;2023-03-01T16:34:29;9.00;1.00
1455;DHT22;721;48.168;12.818;2023-03-01T16:36:56;8.70;1.00
1455;DHT22;721;48.168;12.818;2023-03-01T16:39:24;8.60;1.00
1455;DHT22;721;48.168;12.818;2023-03-01T16:41:51;8.60;1.00
1455;DHT22;721;48.168;12.818;2023-03-01T16:44:17;8.50;1.00
1455;DHT22;721;48.168;12.818;2023-03-01T16:46:44;8.50;1.00
1455;DHT22;721;48.168;12.818;2023-03-01T16:49:11;8.30;1.00
1455;DHT22;721;48.168;12.818;2023-03-01T16:51:38;8.10;1.00
1455;DHT22;721;48.168;12.818;2023-03-01T16:54:05;8.00;1.00
1455;DHT22;721;48.168;12.818;2023-03-01T16:56:33;7.90;1.00